createdAt,value
2022-12-16T00:01:08.413Z,-0.01
2022-12-16T00:03:36.935Z,-0.06
2022-12-16T00:06:05.132Z,-0.03
2022-12-16T00:08:34.903Z,-0.03
2022-12-16T00:11:02.933Z,-0.02
2022-12-16T00:13:33.888Z,-0.01
2022-12-16T00:16:05.106Z,0.02
2022-12-16T00:18:32.718Z,0.02
2022-12-16T00:21:00.725Z,0.03
2022-12-16T00:23:28.869Z,0.04
2022-12-16T00:25:56.956Z,0.02
2022-12-16T00:28:24.996Z,0.02
2022-12-16T00:30:56.221Z,0.00
2022-12-16T00:33:25.888Z,-0.02
2022-12-16T00:35:54.733Z,-0.07
2022-12-16T00:38:23.658Z,-0.04
2022-12-16T00:40:52.150Z,-0.08
2022-12-16T00:43:20.630Z,-0.04
2022-12-16T00:45:48.941Z,-0.03
2022-12-16T00:48:18.072Z,-0.01
2022-12-16T00:50:47.287Z,0.01
2022-12-16T00:53:15.162Z,0.02
2022-12-16T00:55:43.200Z,0.00
2022-12-16T00:58:10.770Z,0.02
2022-12-16T01:00:38.671Z,0.03
2022-12-16T01:03:06.849Z,0.00
2022-12-16T01:05:38.336Z,0.02
2022-12-16T01:08:06.167Z,0.04
2022-12-16T01:10:33.824Z,0.04
2022-12-16T01:13:01.388Z,0.04
2022-12-16T01:15:28.943Z,0.05
2022-12-16T01:17:56.522Z,0.06
2022-12-16T01:20:24.128Z,0.09
2022-12-16T01:22:53.041Z,0.12
2022-12-16T01:25:22.451Z,0.12
2022-12-16T01:27:50.236Z,0.16
2022-12-16T01:30:18.177Z,0.16
2022-12-16T01:32:45.733Z,0.17
2022-12-16T01:35:36.417Z,0.16
2022-12-16T01:38:02.417Z,0.17
2022-12-16T01:40:30.855Z,0.20
2022-12-16T01:42:58.396Z,0.19
2022-12-16T01:45:32.950Z,0.19
2022-12-16T01:48:04.772Z,0.21
2022-12-16T01:50:32.982Z,0.21
2022-12-16T01:53:06.461Z,0.19
2022-12-16T01:55:38.304Z,0.19
2022-12-16T01:58:10.239Z,0.18
2022-12-16T02:00:39.507Z,0.20
2022-12-16T02:03:07.704Z,0.18
2022-12-16T02:05:39.417Z,0.16
2022-12-16T02:08:13.985Z,0.19
2022-12-16T02:10:55.504Z,0.20
2022-12-16T02:13:34.784Z,0.22
2022-12-16T02:16:13.885Z,0.25
2022-12-16T02:18:51.883Z,0.26
2022-12-16T02:21:31.545Z,0.28
2022-12-16T02:24:36.288Z,0.27
2022-12-16T02:27:46.397Z,0.24
2022-12-16T02:30:43.231Z,0.22
2022-12-16T02:33:24.535Z,0.15
2022-12-16T02:35:58.365Z,0.12
2022-12-16T02:38:31.777Z,0.09
2022-12-16T02:41:03.834Z,0.04
2022-12-16T02:43:51.448Z,0.02
2022-12-16T02:46:24.756Z,0.06
2022-12-16T02:48:52.378Z,0.09
2022-12-16T02:51:21.229Z,0.10
2022-12-16T02:53:51.496Z,0.10
2022-12-16T02:56:31.132Z,0.10
2022-12-16T02:59:09.168Z,0.10
2022-12-16T03:01:42.474Z,0.10
2022-12-16T03:04:15.237Z,0.14
2022-12-16T03:06:49.145Z,0.14
2022-12-16T03:09:22.174Z,0.15
2022-12-16T03:11:52.277Z,0.15
2022-12-16T03:14:22.781Z,0.18
2022-12-16T03:16:52.681Z,0.17
2022-12-16T03:19:22.607Z,0.17
2022-12-16T03:21:55.880Z,0.11
2022-12-16T03:24:24.639Z,0.10
2022-12-16T03:26:57.574Z,0.13
2022-12-16T03:29:31.037Z,0.15
2022-12-16T03:32:03.777Z,0.13
2022-12-16T03:34:35.868Z,0.11
2022-12-16T03:37:06.225Z,0.08
2022-12-16T03:39:36.248Z,0.07
2022-12-16T03:42:05.325Z,0.04
2022-12-16T03:44:33.224Z,0.03
2022-12-16T03:47:02.172Z,0.02
2022-12-16T03:49:29.745Z,-0.02
2022-12-16T03:51:57.318Z,-0.04
2022-12-16T03:54:25.709Z,-0.01
2022-12-16T03:56:54.228Z,0.04
2022-12-16T03:59:21.844Z,0.04
2022-12-16T04:01:50.036Z,0.03
2022-12-16T04:04:19.577Z,0.05
2022-12-16T04:07:07.157Z,0.03
2022-12-16T04:09:34.695Z,0.05
2022-12-16T04:12:19.920Z,0.03
2022-12-16T04:15:05.057Z,0.05
2022-12-16T04:17:50.320Z,0.03
2022-12-16T04:20:37.774Z,0.04
2022-12-16T04:23:23.503Z,0.07
2022-12-16T04:25:51.420Z,0.09
2022-12-16T04:28:18.975Z,0.08
2022-12-16T04:30:46.609Z,0.10
2022-12-16T04:33:33.960Z,0.09
2022-12-16T04:36:20.797Z,0.13
2022-12-16T04:39:06.096Z,0.13
2022-12-16T04:41:51.624Z,0.12
2022-12-16T04:44:36.940Z,0.11
2022-12-16T04:47:22.112Z,0.15
2022-12-16T04:50:07.451Z,0.15
2022-12-16T04:52:54.132Z,0.10
2022-12-16T04:55:39.208Z,0.12
2022-12-16T04:58:24.356Z,0.15
2022-12-16T05:01:15.139Z,0.14
2022-12-16T05:04:00.599Z,0.13
2022-12-16T05:06:45.561Z,0.13
2022-12-16T05:09:32.157Z,0.14
2022-12-16T05:12:19.703Z,0.15
2022-12-16T05:15:04.740Z,0.14
2022-12-16T05:17:50.087Z,0.13
2022-12-16T05:20:35.285Z,0.09
2022-12-16T05:23:35.495Z,0.09
2022-12-16T05:26:21.930Z,0.12
2022-12-16T05:29:06.731Z,0.13
2022-12-16T05:31:52.004Z,0.13
2022-12-16T05:34:37.255Z,0.13
2022-12-16T05:37:22.206Z,0.11
2022-12-16T05:40:07.401Z,0.13
2022-12-16T05:42:54.087Z,0.14
2022-12-16T05:45:50.673Z,0.14
2022-12-16T05:48:35.500Z,0.13
2022-12-16T05:51:20.733Z,0.14
2022-12-16T05:54:05.989Z,0.14
2022-12-16T05:56:50.951Z,0.10
2022-12-16T05:59:37.504Z,0.07
2022-12-16T06:02:23.419Z,0.00
2022-12-16T06:05:08.777Z,-0.03
2022-12-16T06:07:54.080Z,-0.04
2022-12-16T06:10:44.825Z,-0.11
2022-12-16T06:13:30.415Z,-0.08
2022-12-16T06:16:17.011Z,-0.09
2022-12-16T06:19:10.393Z,-0.09
2022-12-16T06:21:55.572Z,-0.08
2022-12-16T06:24:40.804Z,-0.08
2022-12-16T06:27:25.201Z,-0.09
2022-12-16T06:30:10.497Z,-0.13
2022-12-16T06:32:57.120Z,-0.14
2022-12-16T06:35:42.057Z,-0.17
2022-12-16T06:38:27.328Z,-0.14
2022-12-16T06:41:12.715Z,-0.16
2022-12-16T06:43:57.999Z,-0.15
2022-12-16T06:46:43.004Z,-0.19
2022-12-16T06:49:29.557Z,-0.19
2022-12-16T06:52:23.289Z,-0.17
2022-12-16T06:55:08.221Z,-0.17
2022-12-16T06:57:53.533Z,-0.18
2022-12-16T07:00:38.970Z,-0.14
2022-12-16T07:03:24.058Z,-0.13
2022-12-16T07:06:12.923Z,-0.13
2022-12-16T07:08:58.452Z,-0.13
2022-12-16T07:11:43.700Z,-0.14
2022-12-16T07:14:28.984Z,-0.11
2022-12-16T07:17:17.327Z,-0.10
2022-12-16T07:20:02.876Z,-0.08
2022-12-16T07:22:58.454Z,-0.06
2022-12-16T07:25:47.996Z,-0.05
2022-12-16T07:28:33.140Z,-0.04
2022-12-16T07:31:18.262Z,-0.07
2022-12-16T07:34:03.556Z,-0.10
2022-12-16T07:36:53.882Z,-0.11
2022-12-16T07:39:40.380Z,-0.09
2022-12-16T07:42:25.587Z,-0.09
2022-12-16T07:45:10.645Z,-0.10
2022-12-16T07:47:55.873Z,-0.06
2022-12-16T07:50:41.229Z,-0.04
2022-12-16T07:53:31.085Z,0.02
2022-12-16T07:56:17.852Z,0.06
2022-12-16T07:59:03.084Z,0.06
2022-12-16T08:01:47.585Z,0.07
2022-12-16T08:04:32.941Z,0.12
2022-12-16T08:07:18.280Z,0.14
2022-12-16T08:10:03.189Z,0.12
2022-12-16T08:12:49.758Z,0.00
2022-12-16T08:15:34.668Z,-0.03
2022-12-16T08:18:20.203Z,-0.07
2022-12-16T08:21:07.872Z,-0.02
2022-12-16T08:23:53.815Z,0.00
2022-12-16T08:26:40.023Z,0.06
2022-12-16T08:29:43.676Z,0.11
2022-12-16T08:32:29.989Z,0.14
2022-12-16T08:35:15.024Z,0.19
2022-12-16T08:38:00.236Z,0.23
2022-12-16T08:40:50.792Z,0.26
2022-12-16T08:43:36.643Z,0.30
2022-12-16T08:46:23.736Z,0.33
2022-12-16T08:49:09.020Z,0.38
2022-12-16T08:51:54.200Z,0.44
2022-12-16T08:54:41.007Z,0.52
2022-12-16T08:57:26.192Z,0.59
2022-12-16T09:00:11.497Z,0.59
2022-12-16T09:02:58.302Z,0.60
2022-12-16T09:05:43.814Z,0.67
2022-12-16T09:08:29.024Z,0.79
2022-12-16T09:11:14.276Z,0.86
2022-12-16T09:13:59.676Z,0.91
2022-12-16T09:16:44.738Z,1.00
2022-12-16T09:19:31.505Z,1.12
2022-12-16T09:22:16.750Z,1.24
2022-12-16T09:25:01.743Z,1.32
2022-12-16T09:27:47.101Z,1.37
2022-12-16T09:30:32.231Z,1.50
2022-12-16T09:33:17.493Z,1.57
2022-12-16T09:36:03.719Z,1.68
2022-12-16T09:38:48.225Z,1.78
2022-12-16T09:41:53.869Z,1.76
2022-12-16T09:44:50.645Z,1.92
2022-12-16T09:47:47.975Z,1.96
2022-12-16T09:50:39.744Z,1.99
2022-12-16T09:53:31.667Z,2.15
2022-12-16T09:56:16.976Z,2.16
2022-12-16T09:59:06.373Z,2.18
2022-12-16T10:01:55.907Z,2.25
2022-12-16T10:04:42.012Z,2.24
2022-12-16T10:07:34.772Z,2.16
2022-12-16T10:10:34.780Z,2.11
2022-12-16T10:13:32.002Z,2.06
2022-12-16T10:16:30.570Z,2.08
2022-12-16T10:19:24.496Z,2.11
2022-12-16T10:22:20.231Z,2.19
2022-12-16T10:25:14.219Z,2.24
2022-12-16T10:28:12.464Z,2.30
2022-12-16T10:30:57.706Z,2.33
2022-12-16T10:33:45.970Z,2.41
2022-12-16T10:36:34.619Z,2.49
2022-12-16T10:39:23.528Z,2.57
2022-12-16T10:42:12.340Z,2.60
2022-12-16T10:45:09.231Z,2.67
2022-12-16T10:47:54.476Z,2.68
2022-12-16T10:50:40.241Z,2.78
2022-12-16T10:53:32.462Z,2.88
2022-12-16T10:56:29.721Z,2.99
2022-12-16T10:59:18.981Z,3.05
2022-12-16T11:02:15.108Z,3.12
2022-12-16T11:05:00.981Z,3.16
2022-12-16T11:07:51.958Z,3.15
2022-12-16T11:10:47.429Z,3.11
2022-12-16T11:13:41.431Z,3.16
2022-12-16T11:16:33.554Z,3.25
2022-12-16T11:19:20.317Z,3.46
2022-12-16T11:22:05.694Z,3.47
2022-12-16T11:24:51.351Z,3.46
2022-12-16T11:27:38.570Z,3.21
2022-12-16T11:30:35.468Z,3.14
2022-12-16T11:33:30.202Z,3.07
2022-12-16T11:36:25.837Z,2.93
2022-12-16T11:39:11.492Z,2.72
2022-12-16T11:41:59.660Z,2.73
2022-12-16T11:44:49.285Z,2.79
2022-12-16T11:47:41.197Z,2.71
2022-12-16T11:50:32.001Z,2.66
2022-12-16T11:53:27.957Z,2.69
2022-12-16T11:56:16.410Z,2.74
2022-12-16T11:59:05.076Z,2.71
2022-12-16T12:01:55.442Z,2.77
2022-12-16T12:04:41.466Z,2.85
2022-12-16T12:07:45.365Z,2.90
2022-12-16T12:10:49.948Z,2.89
2022-12-16T12:13:47.716Z,2.89
2022-12-16T12:16:43.303Z,2.84
2022-12-16T12:19:33.624Z,2.75
2022-12-16T12:22:27.624Z,2.62
2022-12-16T12:25:20.698Z,2.54
2022-12-16T12:28:14.013Z,2.54
2022-12-16T12:31:12.912Z,2.24
2022-12-16T12:34:09.144Z,2.18
2022-12-16T12:36:59.010Z,2.10
2022-12-16T12:39:52.734Z,2.19
2022-12-16T12:42:49.562Z,2.22
2022-12-16T12:46:04.549Z,2.16
2022-12-16T12:48:57.550Z,2.10
2022-12-16T12:51:49.463Z,1.94
2022-12-16T12:54:47.336Z,1.87
2022-12-16T12:57:37.093Z,1.77
2022-12-16T13:00:24.332Z,1.59
2022-12-16T13:03:20.542Z,1.55
2022-12-16T13:06:06.441Z,1.53
2022-12-16T13:09:01.790Z,1.48
2022-12-16T13:11:47.089Z,1.46
2022-12-16T13:15:21.160Z,1.44
2022-12-16T13:18:38.487Z,1.26
2022-12-16T13:21:43.784Z,1.18
2022-12-16T13:24:51.465Z,1.06
2022-12-16T13:27:36.904Z,1.02
2022-12-16T13:30:36.660Z,0.96
2022-12-16T13:33:24.979Z,0.94
2022-12-16T13:36:12.515Z,0.97
2022-12-16T13:39:05.003Z,0.94
2022-12-16T13:42:17.256Z,0.92
2022-12-16T13:45:15.704Z,0.84
2022-12-16T13:48:22.717Z,0.78
2022-12-16T13:51:18.069Z,0.70
2022-12-16T13:54:08.263Z,0.63
2022-12-16T13:56:56.721Z,0.52
2022-12-16T13:59:46.854Z,0.41
2022-12-16T14:02:48.297Z,0.30
2022-12-16T14:05:37.611Z,0.23
2022-12-16T14:08:24.791Z,0.14
2022-12-16T14:11:17.452Z,0.00
2022-12-16T14:14:17.225Z,-0.28
2022-12-16T14:17:10.052Z,-0.75
2022-12-16T14:20:12.512Z,-1.10
2022-12-16T14:23:14.912Z,-1.27
2022-12-16T14:26:15.764Z,-1.49
2022-12-16T14:29:05.048Z,-1.69
2022-12-16T14:31:55.451Z,-1.90
2022-12-16T14:34:45.142Z,-2.00
2022-12-16T14:37:34.852Z,-2.14
2022-12-16T14:40:20.698Z,-2.28
2022-12-16T14:43:12.899Z,-2.36
2022-12-16T14:46:06.343Z,-2.44
2022-12-16T14:48:54.060Z,-2.49
2022-12-16T14:51:48.275Z,-2.53
2022-12-16T14:54:39.732Z,-2.56
2022-12-16T14:57:30.600Z,-2.62
2022-12-16T15:00:20.589Z,-2.70
2022-12-16T15:03:09.115Z,-2.80
2022-12-16T15:05:56.805Z,-2.89
2022-12-16T15:08:44.417Z,-3.00
2022-12-16T15:11:34.023Z,-3.07
2022-12-16T15:14:20.958Z,-3.12
2022-12-16T15:17:07.668Z,-3.16
2022-12-16T15:20:03.365Z,-3.18
2022-12-16T15:22:49.350Z,-3.25
2022-12-16T15:25:41.112Z,-3.33
2022-12-16T15:28:42.669Z,-3.45
2022-12-16T15:31:42.122Z,-3.61
2022-12-16T15:34:42.760Z,-3.79
2022-12-16T15:37:40.259Z,-3.95
2022-12-16T15:40:41.532Z,-4.12
2022-12-16T15:43:39.809Z,-4.26
2022-12-16T15:46:25.488Z,-4.38
2022-12-16T15:49:10.728Z,-4.48
2022-12-16T15:52:03.503Z,-4.61
2022-12-16T15:54:48.958Z,-4.72
2022-12-16T15:57:46.773Z,-4.83
2022-12-16T16:00:42.220Z,-4.90
2022-12-16T16:03:40.501Z,-5.03
2022-12-16T16:06:35.889Z,-5.12
2022-12-16T16:09:30.198Z,-5.21
2022-12-16T16:12:15.503Z,-5.29
2022-12-16T16:15:01.832Z,-5.40
2022-12-16T16:17:47.144Z,-5.52
2022-12-16T16:20:33.437Z,-5.64
2022-12-16T16:23:18.631Z,-5.79
2022-12-16T16:26:05.149Z,-5.90
2022-12-16T16:28:50.452Z,-5.97
2022-12-16T16:31:36.902Z,-6.05
2022-12-16T16:34:22.322Z,-6.14
2022-12-16T16:37:11.437Z,-6.24
2022-12-16T16:39:56.128Z,-6.31
2022-12-16T16:42:41.481Z,-6.33
2022-12-16T16:45:24.007Z,-6.35
2022-12-16T16:48:25.256Z,-6.33
2022-12-16T16:51:14.624Z,-6.36
2022-12-16T16:54:00.320Z,-6.38
2022-12-16T16:56:47.189Z,-6.40
2022-12-16T16:59:32.571Z,-6.44
2022-12-16T17:02:17.946Z,-6.47
2022-12-16T17:05:04.706Z,-6.52
2022-12-16T17:07:53.751Z,-6.58
2022-12-16T17:10:39.247Z,-6.68
2022-12-16T17:13:24.557Z,-6.69
2022-12-16T17:16:09.658Z,-6.66
2022-12-16T17:18:54.603Z,-6.62
2022-12-16T17:21:40.910Z,-6.52
2022-12-16T17:24:26.136Z,-6.43
2022-12-16T17:27:11.244Z,-6.30
2022-12-16T17:29:58.756Z,-6.24
2022-12-16T17:32:43.760Z,-6.21
2022-12-16T17:35:30.124Z,-6.23
2022-12-16T17:38:16.643Z,-6.28
2022-12-16T17:41:01.968Z,-6.31
2022-12-16T17:43:46.992Z,-6.33
2022-12-16T17:46:32.335Z,-6.37
2022-12-16T17:49:17.406Z,-6.42
2022-12-16T17:52:02.918Z,-6.47
2022-12-16T17:54:45.797Z,-6.54
2022-12-16T17:57:31.006Z,-6.60
2022-12-16T18:00:16.372Z,-6.73
2022-12-16T18:03:01.658Z,-7.17
2022-12-16T18:05:46.993Z,-7.28
2022-12-16T18:08:32.348Z,-7.37
2022-12-16T18:11:18.761Z,-7.38
2022-12-16T18:14:03.734Z,-7.39
2022-12-16T18:16:49.034Z,-7.43
2022-12-16T18:19:35.015Z,-7.48
2022-12-16T18:22:20.649Z,-7.53
2022-12-16T18:25:05.997Z,-7.56
2022-12-16T18:27:54.148Z,-7.58
2022-12-16T18:30:39.985Z,-7.64
2022-12-16T18:33:25.287Z,-7.66
2022-12-16T18:36:10.563Z,-7.73
2022-12-16T18:38:55.737Z,-7.79
2022-12-16T18:41:41.496Z,-7.82
2022-12-16T18:44:31.536Z,-7.88
2022-12-16T18:47:16.827Z,-7.92
2022-12-16T18:50:04.301Z,-7.96
2022-12-16T18:52:49.293Z,-8.02
2022-12-16T18:55:34.537Z,-8.09
2022-12-16T18:58:50.836Z,-8.17
2022-12-16T19:01:28.498Z,-8.25
2022-12-16T19:04:11.057Z,-8.30
2022-12-16T19:06:56.369Z,-8.33
2022-12-16T19:09:41.603Z,-8.36
2022-12-16T19:12:26.776Z,-8.44
2022-12-16T19:15:11.888Z,-8.50
2022-12-16T19:17:58.458Z,-8.58
2022-12-16T19:20:44.339Z,-8.70
2022-12-16T19:23:32.700Z,-8.85
2022-12-16T19:26:19.074Z,-8.89
2022-12-16T19:29:04.440Z,-8.89
2022-12-16T19:31:49.930Z,-8.90
2022-12-16T19:34:36.443Z,-8.93
2022-12-16T19:37:21.680Z,-8.91
2022-12-16T19:40:06.809Z,-8.92
2022-12-16T19:42:51.824Z,-8.88
2022-12-16T19:45:37.101Z,-8.81
2022-12-16T19:48:23.988Z,-8.76
2022-12-16T19:51:16.543Z,-8.72
2022-12-16T19:54:02.093Z,-8.69
2022-12-16T19:56:55.282Z,-8.65
2022-12-16T19:59:40.697Z,-8.59
2022-12-16T20:02:29.525Z,-8.58
2022-12-16T20:05:14.763Z,-8.56
2022-12-16T20:08:01.183Z,-8.53
2022-12-16T20:10:46.450Z,-8.50
2022-12-16T20:13:32.114Z,-8.47
2022-12-16T20:16:20.362Z,-8.44
2022-12-16T20:19:05.628Z,-8.43
2022-12-16T20:21:52.499Z,-8.44
2022-12-16T20:24:43.394Z,-8.46
2022-12-16T20:27:28.653Z,-8.40
2022-12-16T20:30:14.011Z,-8.41
2022-12-16T20:32:58.993Z,-8.51
2022-12-16T20:35:44.445Z,-8.62
2022-12-16T20:38:29.709Z,-8.61
2022-12-16T20:41:20.266Z,-8.62
2022-12-16T20:44:05.632Z,-8.67
2022-12-16T20:46:50.957Z,-8.69
2022-12-16T20:49:36.666Z,-8.61
2022-12-16T20:52:21.750Z,-8.53
2022-12-16T20:55:06.739Z,-8.50
2022-12-16T20:57:53.397Z,-8.48
2022-12-16T21:00:41.680Z,-8.44
2022-12-16T21:03:27.728Z,-8.40
2022-12-16T21:06:13.597Z,-8.33
2022-12-16T21:08:58.970Z,-8.26
2022-12-16T21:11:52.444Z,-8.20
2022-12-16T21:14:43.143Z,-8.13
2022-12-16T21:17:28.254Z,-8.06
2022-12-16T21:20:13.697Z,-7.99
2022-12-16T21:22:58.653Z,-7.92
2022-12-16T21:25:43.944Z,-7.85
2022-12-16T21:28:30.204Z,-7.77
2022-12-16T21:31:17.656Z,-7.72
2022-12-16T21:34:02.920Z,-7.66
2022-12-16T21:36:48.069Z,-7.59
2022-12-16T21:39:33.445Z,-7.48
2022-12-16T21:42:18.641Z,-7.35
2022-12-16T21:45:03.909Z,-7.25
2022-12-16T21:47:46.727Z,-7.14
2022-12-16T21:50:32.956Z,-7.05
2022-12-16T21:53:18.369Z,-6.96
2022-12-16T21:56:10.130Z,-6.86
2022-12-16T21:58:55.325Z,-6.74
2022-12-16T22:01:52.151Z,-6.64
2022-12-16T22:04:38.761Z,-6.56
2022-12-16T22:07:24.084Z,-6.49
2022-12-16T22:10:09.416Z,-6.39
2022-12-16T22:12:56.305Z,-6.28
2022-12-16T22:15:41.836Z,-6.22
2022-12-16T22:18:27.029Z,-6.11
2022-12-16T22:21:17.177Z,-6.01
2022-12-16T22:24:02.549Z,-5.94
2022-12-16T22:26:47.698Z,-5.85
2022-12-16T22:29:33.153Z,-5.79
2022-12-16T22:32:18.870Z,-5.73
2022-12-16T22:35:04.100Z,-5.67
2022-12-16T22:37:50.447Z,-5.63
2022-12-16T22:40:35.633Z,-5.57
2022-12-16T22:43:20.484Z,-5.56
2022-12-16T22:46:05.920Z,-5.54
2022-12-16T22:48:51.184Z,-5.53
2022-12-16T22:51:37.012Z,-5.54
2022-12-16T22:54:23.505Z,-5.54
2022-12-16T22:57:08.880Z,-5.56
2022-12-16T22:59:54.568Z,-5.60
2022-12-16T23:02:41.882Z,-5.56
2022-12-16T23:08:32.213Z,-5.51
2022-12-16T23:11:18.806Z,-5.52
2022-12-16T23:14:03.768Z,-5.50
2022-12-16T23:16:49.160Z,-5.49
2022-12-16T23:19:34.411Z,-5.48
2022-12-16T23:22:19.479Z,-5.49
2022-12-16T23:25:04.630Z,-5.52
2022-12-16T23:27:59.297Z,-5.54
2022-12-16T23:30:44.717Z,-5.60
2022-12-16T23:33:29.759Z,-5.61
2022-12-16T23:36:14.952Z,-5.63
2022-12-16T23:39:00.257Z,-5.60
2022-12-16T23:41:45.212Z,-5.61
2022-12-16T23:44:31.740Z,-5.60
2022-12-16T23:47:16.874Z,-5.60
2022-12-16T23:50:02.298Z,-5.58
2022-12-16T23:52:47.551Z,-5.58
2022-12-16T23:55:32.601Z,-5.63
2022-12-16T23:58:18.444Z,-5.68
